sensor_id;sensor_type;location;lat;lon;timestamp;pressure;altitude;pressure_sealevel;temperature;humidity
36234;BME280;43467;50.890;5.982;2023-05-08T00:00:18;100583.53;;;17.65;90.63
36234;BME280;43467;50.890;5.982;2023-05-08T00:02:43;100589.44;;;17.71;89.94
36234;BME280;43467;50.890;5.982;2023-05-08T00:05:09;100587.53;;;17.73;89.75
36234;BME280;43467;50.890;5.982;2023-05-08T00:07:35;100591.78;;;17.75;89.47
36234;BME280;43467;50.890;5.982;2023-05-08T00:10:02;100584.16;;;17.69;89.57
36234;BME280;43467;50.890;5.982;2023-05-08T00:12:28;100597.56;;;17.69;89.80
36234;BME280;43467;50.890;5.982;2023-05-08T00:14:54;100590.28;;;17.71;89.58
36234;BME280;43467;50.890;5.982;2023-05-08T00:17:20;100587.94;;;17.67;89.94
36234;BME280;43467;50.890;5.982;2023-05-08T00:19:46;100592.13;;;17.71;89.38
36234;BME280;43467;50.890;5.982;2023-05-08T00:22:12;100588.69;;;17.69;89.49
36234;BME280;43467;50.890;5.982;2023-05-08T00:24:37;100589.53;;;17.69;89.79
36234;BME280;43467;50.890;5.982;2023-05-08T00:27:03;100586.44;;;17.62;90.06
36234;BME280;43467;50.890;5.982;2023-05-08T00:29:28;100590.69;;;17.52;90.72
36234;BME280;43467;50.890;5.982;2023-05-08T00:31:54;100583.19;;;17.57;90.19
36234;BME280;43467;50.890;5.982;2023-05-08T00:34:19;100581.56;;;17.55;90.68
36234;BME280;43467;50.890;5.982;2023-05-08T00:36:45;100583.69;;;17.50;90.88
36234;BME280;43467;50.890;5.982;2023-05-08T00:39:10;100588.31;;;17.48;91.01
36234;BME280;43467;50.890;5.982;2023-05-08T00:41:36;100584.00;;;17.45;90.99
36234;BME280;43467;50.890;5.982;2023-05-08T00:44:02;100584.34;;;17.53;90.71
36234;BME280;43467;50.890;5.982;2023-05-08T00:46:27;100580.63;;;17.56;90.36
36234;BME280;43467;50.890;5.982;2023-05-08T00:48:53;100565.81;;;17.50;90.29
36234;BME280;43467;50.890;5.982;2023-05-08T00:51:18;100583.09;;;17.59;90.10
36234;BME280;43467;50.890;5.982;2023-05-08T00:53:44;100582.25;;;17.58;90.44
36234;BME280;43467;50.890;5.982;2023-05-08T00:56:12;100594.56;;;17.61;90.01
36234;BME280;43467;50.890;5.982;2023-05-08T00:58:38;100581.28;;;17.59;90.17
36234;BME280;43467;50.890;5.982;2023-05-08T01:01:04;100578.72;;;17.58;90.29
36234;BME280;43467;50.890;5.982;2023-05-08T01:03:32;100591.06;;;17.60;89.82
36234;BME280;43467;50.890;5.982;2023-05-08T01:06:00;100590.00;;;17.49;90.62
36234;BME280;43467;50.890;5.982;2023-05-08T01:08:26;100589.38;;;17.45;90.73
36234;BME280;43467;50.890;5.982;2023-05-08T01:11:20;100587.88;;;17.41;91.33
36234;BME280;43467;50.890;5.982;2023-05-08T01:16:40;100599.03;;;17.48;90.85
36234;BME280;43467;50.890;5.982;2023-05-08T01:19:49;100593.78;;;17.46;91.04
36234;BME280;43467;50.890;5.982;2023-05-08T01:34:09;100594.34;;;17.25;92.11
36234;BME280;43467;50.890;5.982;2023-05-08T01:36:42;100582.66;;;17.13;92.15
36234;BME280;43467;50.890;5.982;2023-05-08T01:42:11;100597.25;;;17.22;92.24
36234;BME280;43467;50.890;5.982;2023-05-08T01:44:44;100593.72;;;17.21;92.34
36234;BME280;43467;50.890;5.982;2023-05-08T01:47:13;100594.31;;;17.12;92.90
36234;BME280;43467;50.890;5.982;2023-05-08T01:49:56;100595.94;;;17.14;93.03
36234;BME280;43467;50.890;5.982;2023-05-08T01:52:31;100599.66;;;17.12;93.26
36234;BME280;43467;50.890;5.982;2023-05-08T01:55:10;100606.19;;;17.08;93.40
36234;BME280;43467;50.890;5.982;2023-05-08T01:57:39;100609.50;;;16.99;94.00
36234;BME280;43467;50.890;5.982;2023-05-08T02:00:06;100598.53;;;16.89;94.35
36234;BME280;43467;50.890;5.982;2023-05-08T02:02:33;100608.06;;;16.93;94.37
36234;BME280;43467;50.890;5.982;2023-05-08T02:05:01;100600.41;;;17.01;93.88
36234;BME280;43467;50.890;5.982;2023-05-08T02:07:28;100591.72;;;16.98;93.96
36234;BME280;43467;50.890;5.982;2023-05-08T02:09:55;100603.63;;;17.06;93.50
36234;BME280;43467;50.890;5.982;2023-05-08T02:12:22;100600.19;;;17.04;93.53
36234;BME280;43467;50.890;5.982;2023-05-08T02:14:50;100602.34;;;17.12;93.53
36234;BME280;43467;50.890;5.982;2023-05-08T02:17:16;100613.53;;;17.18;92.99
36234;BME280;43467;50.890;5.982;2023-05-08T02:19:42;100611.59;;;17.20;92.33
36234;BME280;43467;50.890;5.982;2023-05-08T02:22:08;100613.09;;;17.25;92.23
36234;BME280;43467;50.890;5.982;2023-05-08T02:24:35;100616.53;;;17.27;91.70
36234;BME280;43467;50.890;5.982;2023-05-08T02:27:04;100615.38;;;17.31;91.54
36234;BME280;43467;50.890;5.982;2023-05-08T02:29:31;100615.38;;;17.31;91.00
36234;BME280;43467;50.890;5.982;2023-05-08T02:31:59;100610.88;;;17.31;91.10
36234;BME280;43467;50.890;5.982;2023-05-08T02:34:26;100607.44;;;17.29;90.93
36234;BME280;43467;50.890;5.982;2023-05-08T02:36:53;100612.69;;;17.31;90.57
36234;BME280;43467;50.890;5.982;2023-05-08T02:39:20;100607.44;;;17.29;90.55
36234;BME280;43467;50.890;5.982;2023-05-08T02:41:49;100612.91;;;17.28;90.40
36234;BME280;43467;50.890;5.982;2023-05-08T02:44:15;100612.13;;;17.26;90.68
36234;BME280;43467;50.890;5.982;2023-05-08T02:47:18;100623.06;;;17.23;91.03
36234;BME280;43467;50.890;5.982;2023-05-08T02:49:51;100618.22;;;17.15;91.01
36234;BME280;43467;50.890;5.982;2023-05-08T02:52:27;100624.72;;;17.11;91.36
36234;BME280;43467;50.890;5.982;2023-05-08T02:55:03;100629.19;;;16.98;91.49
36234;BME280;43467;50.890;5.982;2023-05-08T03:00:18;100621.06;;;16.99;91.07
36234;BME280;43467;50.890;5.982;2023-05-08T03:05:47;100634.00;;;17.05;91.26
36234;BME280;43467;50.890;5.982;2023-05-08T03:08:14;100625.91;;;17.07;91.05
36234;BME280;43467;50.890;5.982;2023-05-08T03:10:44;100605.53;;;17.04;91.21
36234;BME280;43467;50.890;5.982;2023-05-08T03:13:12;100613.56;;;17.04;91.21
36234;BME280;43467;50.890;5.982;2023-05-08T03:15:45;100607.47;;;17.02;91.54
36234;BME280;43467;50.890;5.982;2023-05-08T03:18:14;100613.56;;;17.04;91.40
36234;BME280;43467;50.890;5.982;2023-05-08T03:20:46;100602.72;;;16.93;91.29
36234;BME280;43467;50.890;5.982;2023-05-08T03:23:14;100618.97;;;16.90;91.51
36234;BME280;43467;50.890;5.982;2023-05-08T03:25:42;100611.25;;;16.86;91.72
36234;BME280;43467;50.890;5.982;2023-05-08T03:28:09;100614.22;;;16.81;91.76
36234;BME280;43467;50.890;5.982;2023-05-08T03:30:36;100616.53;;;16.87;91.27
36234;BME280;43467;50.890;5.982;2023-05-08T03:33:03;100612.31;;;16.83;91.19
36234;BME280;43467;50.890;5.982;2023-05-08T03:35:30;100617.56;;;16.85;91.52
36234;BME280;43467;50.890;5.982;2023-05-08T03:37:57;100621.31;;;16.82;91.00
36234;BME280;43467;50.890;5.982;2023-05-08T03:40:22;100615.00;;;16.83;91.16
36234;BME280;43467;50.890;5.982;2023-05-08T03:42:48;100622.81;;;16.86;91.04
36234;BME280;43467;50.890;5.982;2023-05-08T03:45:15;100612.13;;;16.86;91.27
36234;BME280;43467;50.890;5.982;2023-05-08T03:47:42;100609.44;;;16.86;91.35
36234;BME280;43467;50.890;5.982;2023-05-08T03:50:08;100613.16;;;16.84;91.22
36234;BME280;43467;50.890;5.982;2023-05-08T03:52:34;100613.06;;;16.85;91.33
36234;BME280;43467;50.890;5.982;2023-05-08T03:54:59;100617.47;;;16.86;91.01
36234;BME280;43467;50.890;5.982;2023-05-08T03:57:39;100624.72;;;16.84;91.51
36234;BME280;43467;50.890;5.982;2023-05-08T04:00:13;100614.22;;;16.81;91.72
36234;BME280;43467;50.890;5.982;2023-05-08T04:02:46;100616.34;;;16.76;91.79
36234;BME280;43467;50.890;5.982;2023-05-08T04:05:26;100615.69;;;16.72;92.14
36234;BME280;43467;50.890;5.982;2023-05-08T04:08:03;100615.38;;;16.77;91.76
36234;BME280;43467;50.890;5.982;2023-05-08T04:10:41;100607.16;;;16.80;91.62
36234;BME280;43467;50.890;5.982;2023-05-08T04:13:12;100609.84;;;16.80;91.74
36234;BME280;43467;50.890;5.982;2023-05-08T04:15:43;100599.13;;;16.80;91.43
36234;BME280;43467;50.890;5.982;2023-05-08T04:18:16;100605.91;;;16.86;91.16
36234;BME280;43467;50.890;5.982;2023-05-08T04:20:46;100603.88;;;16.89;91.06
36234;BME280;43467;50.890;5.982;2023-05-08T04:23:15;100592.25;;;16.90;90.96
36234;BME280;43467;50.890;5.982;2023-05-08T04:25:43;100601.00;;;16.92;90.61
36234;BME280;43467;50.890;5.982;2023-05-08T04:28:10;100608.63;;;16.98;90.31
36234;BME280;43467;50.890;5.982;2023-05-08T04:30:35;100611.59;;;16.94;90.25
36234;BME280;43467;50.890;5.982;2023-05-08T04:33:02;100610.00;;;16.91;90.83
36234;BME280;43467;50.890;5.982;2023-05-08T04:35:28;100607.22;;;16.93;90.97
36234;BME280;43467;50.890;5.982;2023-05-08T04:37:54;100610.59;;;16.82;91.75
36234;BME280;43467;50.890;5.982;2023-05-08T04:40:19;100605.50;;;16.92;91.52
36234;BME280;43467;50.890;5.982;2023-05-08T04:42:45;100617.69;;;16.96;91.45
36234;BME280;43467;50.890;5.982;2023-05-08T04:45:11;100618.25;;;17.01;91.21
36234;BME280;43467;50.890;5.982;2023-05-08T04:47:38;100620.72;;;17.04;91.13
36234;BME280;43467;50.890;5.982;2023-05-08T04:50:04;100617.00;;;17.06;90.58
36234;BME280;43467;50.890;5.982;2023-05-08T04:52:29;100628.56;;;17.07;90.43
36234;BME280;43467;50.890;5.982;2023-05-08T04:54:55;100621.19;;;17.10;90.45
36234;BME280;43467;50.890;5.982;2023-05-08T04:57:20;100622.59;;;17.16;90.18
36234;BME280;43467;50.890;5.982;2023-05-08T04:59:46;100621.41;;;17.20;89.95
36234;BME280;43467;50.890;5.982;2023-05-08T05:02:11;100628.19;;;17.26;90.08
36234;BME280;43467;50.890;5.982;2023-05-08T05:04:37;100622.63;;;17.29;89.22
36234;BME280;43467;50.890;5.982;2023-05-08T05:07:03;100616.53;;;17.27;89.46
36234;BME280;43467;50.890;5.982;2023-05-08T05:09:28;100637.34;;;17.36;89.38
36234;BME280;43467;50.890;5.982;2023-05-08T05:11:54;100635.19;;;17.41;89.65
36234;BME280;43467;50.890;5.982;2023-05-08T05:14:19;100642.59;;;17.50;89.16
36234;BME280;43467;50.890;5.982;2023-05-08T05:16:45;100635.97;;;17.43;89.28
36234;BME280;43467;50.890;5.982;2023-05-08T05:19:10;100643.34;;;17.39;90.08
36234;BME280;43467;50.890;5.982;2023-05-08T05:21:36;100643.53;;;17.36;90.38
36234;BME280;43467;50.890;5.982;2023-05-08T05:24:05;100642.34;;;17.40;90.42
36234;BME280;43467;50.890;5.982;2023-05-08T05:26:31;100637.81;;;17.28;91.40
36234;BME280;43467;50.890;5.982;2023-05-08T05:28:56;100650.47;;;17.26;91.83
36234;BME280;43467;50.890;5.982;2023-05-08T05:31:22;100648.81;;;17.11;92.86
36234;BME280;43467;50.890;5.982;2023-05-08T05:33:47;100657.84;;;17.23;92.65
36234;BME280;43467;50.890;5.982;2023-05-08T05:36:13;100656.91;;;17.24;92.70
36234;BME280;43467;50.890;5.982;2023-05-08T05:38:38;100655.47;;;17.18;93.57
36234;BME280;43467;50.890;5.982;2023-05-08T05:41:04;100662.53;;;17.19;93.45
36234;BME280;43467;50.890;5.982;2023-05-08T05:43:29;100662.84;;;17.14;93.92
36234;BME280;43467;50.890;5.982;2023-05-08T05:45:54;100662.72;;;17.16;93.83
36234;BME280;43467;50.890;5.982;2023-05-08T05:48:20;100669.41;;;17.23;93.96
36234;BME280;43467;50.890;5.982;2023-05-08T05:50:46;100655.13;;;17.10;93.96
36234;BME280;43467;50.890;5.982;2023-05-08T05:53:11;100665.22;;;17.19;93.70
36234;BME280;43467;50.890;5.982;2023-05-08T05:55:37;100675.97;;;17.32;93.67
36234;BME280;43467;50.890;5.982;2023-05-08T05:58:03;100673.59;;;17.27;94.41
36234;BME280;43467;50.890;5.982;2023-05-08T06:00:28;100677.75;;;17.18;94.85
36234;BME280;43467;50.890;5.982;2023-05-08T06:02:55;100671.91;;;17.12;95.17
36234;BME280;43467;50.890;5.982;2023-05-08T06:05:21;100682.53;;;17.13;96.22
36234;BME280;43467;50.890;5.982;2023-05-08T06:07:47;100681.56;;;17.14;96.06
36234;BME280;43467;50.890;5.982;2023-05-08T06:10:12;100679.09;;;17.11;95.97
36234;BME280;43467;50.890;5.982;2023-05-08T06:12:38;100690.75;;;17.10;96.35
36234;BME280;43467;50.890;5.982;2023-05-08T06:15:04;100688.28;;;17.07;96.55
36234;BME280;43467;50.890;5.982;2023-05-08T06:17:30;100689.63;;;17.00;97.29
36234;BME280;43467;50.890;5.982;2023-05-08T06:19:55;100693.94;;;17.03;97.24
36234;BME280;43467;50.890;5.982;2023-05-08T06:22:21;100694.38;;;17.09;97.10
36234;BME280;43467;50.890;5.982;2023-05-08T06:24:51;100703.00;;;17.00;97.52
36234;BME280;43467;50.890;5.982;2023-05-08T06:27:20;100696.91;;;16.98;97.82
36234;BME280;43467;50.890;5.982;2023-05-08T06:29:49;100698.50;;;17.01;98.29
36234;BME280;43467;50.890;5.982;2023-05-08T06:32:17;100700.41;;;17.13;97.81
36234;BME280;43467;50.890;5.982;2023-05-08T06:34:43;100703.22;;;17.24;97.35
36234;BME280;43467;50.890;5.982;2023-05-08T06:37:08;100702.19;;;17.27;96.79
36234;BME280;43467;50.890;5.982;2023-05-08T06:39:34;100699.34;;;17.15;97.94
36234;BME280;43467;50.890;5.982;2023-05-08T06:41:59;100696.50;;;17.04;98.10
36234;BME280;43467;50.890;5.982;2023-05-08T06:44:24;100699.00;;;17.07;98.76
36234;BME280;43467;50.890;5.982;2023-05-08T06:46:50;100701.03;;;17.16;98.53
36234;BME280;43467;50.890;5.982;2023-05-08T06:49:15;100704.84;;;17.27;97.99
36234;BME280;43467;50.890;5.982;2023-05-08T06:51:41;100702.25;;;17.25;97.31
36234;BME280;43467;50.890;5.982;2023-05-08T06:54:06;100707.41;;;17.28;97.49
36234;BME280;43467;50.890;5.982;2023-05-08T06:56:33;100715.13;;;17.33;97.44
36234;BME280;43467;50.890;5.982;2023-05-08T06:58:59;100717.06;;;17.31;97.42
36234;BME280;43467;50.890;5.982;2023-05-08T07:01:24;100708.91;;;17.19;97.41
36234;BME280;43467;50.890;5.982;2023-05-08T07:03:50;100714.03;;;17.23;97.84
36234;BME280;43467;50.890;5.982;2023-05-08T07:06:15;100714.91;;;17.23;97.96
36234;BME280;43467;50.890;5.982;2023-05-08T07:08:41;100711.31;;;17.10;98.70
36234;BME280;43467;50.890;5.982;2023-05-08T07:11:06;100708.41;;;17.13;98.73
36234;BME280;43467;50.890;5.982;2023-05-08T07:13:34;100711.97;;;17.13;99.05
36234;BME280;43467;50.890;5.982;2023-05-08T07:16:00;100710.72;;;17.19;98.64
36234;BME280;43467;50.890;5.982;2023-05-08T07:18:25;100718.19;;;17.14;99.12
36234;BME280;43467;50.890;5.982;2023-05-08T07:20:51;100713.13;;;17.09;98.97
36234;BME280;43467;50.890;5.982;2023-05-08T07:23:17;100709.84;;;17.18;98.90
36234;BME280;43467;50.890;5.982;2023-05-08T07:25:42;100710.59;;;17.20;98.44
36234;BME280;43467;50.890;5.982;2023-05-08T07:28:08;100714.47;;;17.29;97.99
36234;BME280;43467;50.890;5.982;2023-05-08T07:30:34;100720.13;;;17.25;98.13
36234;BME280;43467;50.890;5.982;2023-05-08T07:33:00;100713.63;;;17.29;97.98
36234;BME280;43467;50.890;5.982;2023-05-08T07:35:25;100718.28;;;17.39;97.66
36234;BME280;43467;50.890;5.982;2023-05-08T07:37:51;100721.75;;;17.54;96.77
36234;BME280;43467;50.890;5.982;2023-05-08T07:40:17;100721.97;;;17.51;95.44
36234;BME280;43467;50.890;5.982;2023-05-08T07:42:43;100722.53;;;17.56;95.27
36234;BME280;43467;50.890;5.982;2023-05-08T07:45:09;100730.81;;;17.65;95.25
36234;BME280;43467;50.890;5.982;2023-05-08T07:47:36;100730.63;;;17.69;93.96
36234;BME280;43467;50.890;5.982;2023-05-08T07:50:01;100727.44;;;17.76;93.95
36234;BME280;43467;50.890;5.982;2023-05-08T07:52:27;100730.72;;;17.67;94.59
36234;BME280;43467;50.890;5.982;2023-05-08T07:54:52;100727.50;;;17.62;95.41
36234;BME280;43467;50.890;5.982;2023-05-08T07:57:18;100722.78;;;17.65;96.00
36234;BME280;43467;50.890;5.982;2023-05-08T07:59:43;100722.09;;;17.76;95.39
36234;BME280;43467;50.890;5.982;2023-05-08T08:02:09;100729.81;;;17.81;94.94
36234;BME280;43467;50.890;5.982;2023-05-08T08:04:34;100726.66;;;17.74;95.25
36234;BME280;43467;50.890;5.982;2023-05-08T08:07:00;100725.09;;;17.84;95.07
36234;BME280;43467;50.890;5.982;2023-05-08T08:09:25;100724.84;;;17.75;94.52
36234;BME280;43467;50.890;5.982;2023-05-08T08:11:50;100730.50;;;17.70;94.75
36234;BME280;43467;50.890;5.982;2023-05-08T08:14:16;100725.94;;;17.72;94.47
36234;BME280;43467;50.890;5.982;2023-05-08T08:16:42;100728.94;;;17.80;94.43
36234;BME280;43467;50.890;5.982;2023-05-08T08:19:07;100729.59;;;17.84;93.46
36234;BME280;43467;50.890;5.982;2023-05-08T08:21:33;100729.94;;;17.92;93.20
36234;BME280;43467;50.890;5.982;2023-05-08T08:23:59;100740.19;;;17.73;95.64
36234;BME280;43467;50.890;5.982;2023-05-08T08:26:24;100739.09;;;17.48;97.66
36234;BME280;43467;50.890;5.982;2023-05-08T08:28:50;100735.25;;;17.52;98.28
36234;BME280;43467;50.890;5.982;2023-05-08T08:31:16;100743.47;;;17.63;97.90
36234;BME280;43467;50.890;5.982;2023-05-08T08:33:42;100729.22;;;17.63;97.60
36234;BME280;43467;50.890;5.982;2023-05-08T08:36:14;100728.66;;;17.58;97.70
36234;BME280;43467;50.890;5.982;2023-05-08T08:38:40;100731.72;;;17.52;97.93
36234;BME280;43467;50.890;5.982;2023-05-08T08:41:05;100737.31;;;17.35;98.77
36234;BME280;43467;50.890;5.982;2023-05-08T08:43:31;100736.72;;;17.44;98.08
36234;BME280;43467;50.890;5.982;2023-05-08T08:45:56;100744.81;;;17.56;98.12
36234;BME280;43467;50.890;5.982;2023-05-08T08:48:27;100735.81;;;17.57;97.68
36234;BME280;43467;50.890;5.982;2023-05-08T08:50:57;100736.69;;;17.58;97.50
36234;BME280;43467;50.890;5.982;2023-05-08T08:53:25;100726.66;;;17.74;96.54
36234;BME280;43467;50.890;5.982;2023-05-08T08:55:53;100724.09;;;17.73;95.76
36234;BME280;43467;50.890;5.982;2023-05-08T08:58:37;100721.00;;;17.79;95.47
36234;BME280;43467;50.890;5.982;2023-05-08T09:01:04;100712.88;;;17.80;95.33
36234;BME280;43467;50.890;5.982;2023-05-08T09:03:31;100712.75;;;17.82;94.37
36234;BME280;43467;50.890;5.982;2023-05-08T09:06:01;100712.69;;;17.96;94.42
36234;BME280;43467;50.890;5.982;2023-05-08T09:08:27;100715.91;;;18.01;93.06
36234;BME280;43467;50.890;5.982;2023-05-08T09:10:54;100716.13;;;18.10;92.68
36234;BME280;43467;50.890;5.982;2023-05-08T09:13:20;100715.78;;;18.02;93.52
36234;BME280;43467;50.890;5.982;2023-05-08T09:15:46;100713.88;;;18.17;92.39
36234;BME280;43467;50.890;5.982;2023-05-08T09:18:11;100719.34;;;18.16;92.27
36234;BME280;43467;50.890;5.982;2023-05-08T09:20:39;100721.94;;;18.17;90.94
36234;BME280;43467;50.890;5.982;2023-05-08T09:23:05;100713.13;;;18.28;91.09
36234;BME280;43467;50.890;5.982;2023-05-08T09:25:57;100712.03;;;18.43;88.56
36234;BME280;43467;50.890;5.982;2023-05-08T09:28:24;100714.53;;;18.46;89.01
36234;BME280;43467;50.890;5.982;2023-05-08T09:33:16;100714.03;;;18.53;86.06
36234;BME280;43467;50.890;5.982;2023-05-08T09:35:42;100712.28;;;18.52;86.06
36234;BME280;43467;50.890;5.982;2023-05-08T09:38:07;100714.72;;;18.68;85.61
36234;BME280;43467;50.890;5.982;2023-05-08T09:40:33;100719.69;;;18.74;85.41
36234;BME280;43467;50.890;5.982;2023-05-08T09:43:11;100719.97;;;18.82;83.70
36234;BME280;43467;50.890;5.982;2023-05-08T09:45:38;100720.72;;;18.84;83.26
36234;BME280;43467;50.890;5.982;2023-05-08T09:48:05;100713.25;;;18.64;84.78
36234;BME280;43467;50.890;5.982;2023-05-08T09:50:30;100724.50;;;18.69;85.29
36234;BME280;43467;50.890;5.982;2023-05-08T09:52:57;100722.88;;;18.67;84.00
36234;BME280;43467;50.890;5.982;2023-05-08T09:55:23;100723.41;;;18.72;83.85
36234;BME280;43467;50.890;5.982;2023-05-08T09:57:58;100722.09;;;18.90;83.87
36234;BME280;43467;50.890;5.982;2023-05-08T10:00:25;100716.91;;;18.99;83.16
36234;BME280;43467;50.890;5.982;2023-05-08T10:03:01;100714.50;;;18.71;85.91
36234;BME280;43467;50.890;5.982;2023-05-08T10:05:29;100718.69;;;18.75;86.31
36234;BME280;43467;50.890;5.982;2023-05-08T10:07:56;100719.38;;;18.66;84.60
36234;BME280;43467;50.890;5.982;2023-05-08T10:10:24;100717.50;;;18.67;84.98
36234;BME280;43467;50.890;5.982;2023-05-08T10:12:51;100721.06;;;18.67;82.46
36234;BME280;43467;50.890;5.982;2023-05-08T10:15:17;100717.09;;;18.73;84.76
36234;BME280;43467;50.890;5.982;2023-05-08T10:20:28;100719.97;;;18.82;84.23
36234;BME280;43467;50.890;5.982;2023-05-08T10:22:55;100718.25;;;18.81;84.32
36234;BME280;43467;50.890;5.982;2023-05-08T10:25:21;100718.59;;;18.77;83.17
36234;BME280;43467;50.890;5.982;2023-05-08T10:30:42;100707.63;;;18.80;81.69
36234;BME280;43467;50.890;5.982;2023-05-08T10:33:09;100717.00;;;18.74;80.51
36234;BME280;43467;50.890;5.982;2023-05-08T10:35:36;100721.66;;;18.83;81.33
36234;BME280;43467;50.890;5.982;2023-05-08T10:38:03;100718.59;;;18.77;80.44
36234;BME280;43467;50.890;5.982;2023-05-08T10:40:29;100718.25;;;18.81;81.17
36234;BME280;43467;50.890;5.982;2023-05-08T10:42:55;100716.59;;;18.91;81.51
36234;BME280;43467;50.890;5.982;2023-05-08T10:45:22;100713.25;;;19.00;81.16
36234;BME280;43467;50.890;5.982;2023-05-08T10:48:15;100710.34;;;19.03;81.47
36234;BME280;43467;50.890;5.982;2023-05-08T10:56:41;100704.25;;;19.01;79.44
36234;BME280;43467;50.890;5.982;2023-05-08T10:59:16;100698.88;;;19.01;79.01
36234;BME280;43467;50.890;5.982;2023-05-08T11:01:46;100709.38;;;19.04;78.55
36234;BME280;43467;50.890;5.982;2023-05-08T11:04:19;100702.06;;;19.19;78.78
36234;BME280;43467;50.890;5.982;2023-05-08T11:06:46;100698.38;;;19.20;77.77
36234;BME280;43467;50.890;5.982;2023-05-08T11:09:20;100695.31;;;19.14;76.03
36234;BME280;43467;50.890;5.982;2023-05-08T11:11:54;100688.25;;;19.24;77.54
36234;BME280;43467;50.890;5.982;2023-05-08T11:14:24;100687.25;;;19.14;76.84
36234;BME280;43467;50.890;5.982;2023-05-08T11:19:24;100684.69;;;18.99;79.21
36234;BME280;43467;50.890;5.982;2023-05-08T11:24:39;100685.56;;;19.00;78.95
36234;BME280;43467;50.890;5.982;2023-05-08T11:27:04;100671.13;;;19.14;79.06
36234;BME280;43467;50.890;5.982;2023-05-08T11:29:30;100676.94;;;19.08;76.93
36234;BME280;43467;50.890;5.982;2023-05-08T11:31:55;100675.97;;;19.32;77.20
36234;BME280;43467;50.890;5.982;2023-05-08T11:34:43;100671.75;;;19.41;74.98
36234;BME280;43467;50.890;5.982;2023-05-08T11:37:23;100660.97;;;19.54;73.97
36234;BME280;43467;50.890;5.982;2023-05-08T11:39:49;100655.78;;;19.74;73.43
36234;BME280;43467;50.890;5.982;2023-05-08T11:44:58;100664.13;;;19.93;73.44
36234;BME280;43467;50.890;5.982;2023-05-08T11:47:31;100663.69;;;20.11;72.29
36234;BME280;43467;50.890;5.982;2023-05-08T11:50:01;100666.56;;;19.85;74.11
36234;BME280;43467;50.890;5.982;2023-05-08T11:52:27;100665.44;;;19.77;74.24
36234;BME280;43467;50.890;5.982;2023-05-08T11:54:53;100661.53;;;19.81;73.69
36234;BME280;43467;50.890;5.982;2023-05-08T11:57:18;100665.34;;;19.78;73.46
36234;BME280;43467;50.890;5.982;2023-05-08T11:59:48;100666.75;;;19.60;73.35
36234;BME280;43467;50.890;5.982;2023-05-08T12:02:15;100659.69;;;19.70;72.39
36234;BME280;43467;50.890;5.982;2023-05-08T12:04:47;100632.66;;;19.61;73.03
36234;BME280;43467;50.890;5.982;2023-05-08T12:07:12;100663.66;;;19.88;72.44
36234;BME280;43467;50.890;5.982;2023-05-08T12:09:38;100668.19;;;20.10;72.67
36234;BME280;43467;50.890;5.982;2023-05-08T12:12:03;100663.84;;;20.20;71.29
36234;BME280;43467;50.890;5.982;2023-05-08T12:14:29;100660.38;;;20.18;70.06
36234;BME280;43467;50.890;5.982;2023-05-08T12:16:54;100662.88;;;20.21;70.86
36234;BME280;43467;50.890;5.982;2023-05-08T12:19:20;100665.69;;;20.42;70.19
36234;BME280;43467;50.890;5.982;2023-05-08T12:21:46;100661.91;;;20.56;68.82
36234;BME280;43467;50.890;5.982;2023-05-08T12:24:13;100661.28;;;20.63;68.03
36234;BME280;43467;50.890;5.982;2023-05-08T12:26:40;100655.16;;;20.72;68.16
36234;BME280;43467;50.890;5.982;2023-05-08T12:29:06;100657.09;;;20.93;68.36
36234;BME280;43467;50.890;5.982;2023-05-08T12:31:35;100659.28;;;20.87;66.12
36234;BME280;43467;50.890;5.982;2023-05-08T12:34:02;100658.31;;;20.88;67.80
36234;BME280;43467;50.890;5.982;2023-05-08T12:36:32;100650.66;;;20.62;66.04
36234;BME280;43467;50.890;5.982;2023-05-08T12:39:12;100659.81;;;20.81;66.20
36234;BME280;43467;50.890;5.982;2023-05-08T12:41:55;100657.84;;;20.95;65.25
36234;BME280;43467;50.890;5.982;2023-05-08T12:44:22;100655.47;;;21.01;66.31
36234;BME280;43467;50.890;5.982;2023-05-08T12:46:53;100644.69;;;21.12;65.63
36234;BME280;43467;50.890;5.982;2023-05-08T12:49:29;100654.38;;;21.15;62.78
36234;BME280;43467;50.890;5.982;2023-05-08T12:52:08;100647.50;;;21.22;62.66
36234;BME280;43467;50.890;5.982;2023-05-08T12:54:38;100636.38;;;21.47;62.45
36234;BME280;43467;50.890;5.982;2023-05-08T12:57:15;100634.53;;;21.68;63.59
36234;BME280;43467;50.890;5.982;2023-05-08T12:59:41;100631.91;;;21.78;60.87
36234;BME280;43467;50.890;5.982;2023-05-08T13:02:15;100626.22;;;21.71;60.06
36234;BME280;43467;50.890;5.982;2023-05-08T13:04:42;100600.81;;;21.74;59.43
36234;BME280;43467;50.890;5.982;2023-05-08T13:07:07;100621.16;;;21.99;61.39
36234;BME280;43467;50.890;5.982;2023-05-08T13:09:33;100622.91;;;22.09;61.78
36234;BME280;43467;50.890;5.982;2023-05-08T13:11:59;100618.13;;;22.13;59.56
36234;BME280;43467;50.890;5.982;2023-05-08T13:16:50;100618.44;;;22.19;58.95
36234;BME280;43467;50.890;5.982;2023-05-08T13:19:16;100623.25;;;22.25;59.55
36234;BME280;43467;50.890;5.982;2023-05-08T13:21:42;100618.94;;;22.13;58.22
36234;BME280;43467;50.890;5.982;2023-05-08T13:24:12;100611.66;;;22.25;59.31
36234;BME280;43467;50.890;5.982;2023-05-08T13:26:38;100606.97;;;22.27;58.27
36234;BME280;43467;50.890;5.982;2023-05-08T13:29:03;100606.59;;;22.41;58.95
36234;BME280;43467;50.890;5.982;2023-05-08T13:31:29;100619.69;;;22.55;57.75
36234;BME280;43467;50.890;5.982;2023-05-08T13:33:54;100615.88;;;22.58;57.12
36234;BME280;43467;50.890;5.982;2023-05-08T13:36:20;100613.88;;;22.90;58.09
36234;BME280;43467;50.890;5.982;2023-05-08T13:38:45;100608.63;;;23.17;57.87
36234;BME280;43467;50.890;5.982;2023-05-08T13:41:11;100605.78;;;23.19;59.45